createdAt,value
2019-03-21T00:01:39.375Z,1.75
2019-03-21T00:04:11.998Z,1.59
2019-03-21T00:06:42.026Z,1.62
2019-03-21T00:09:14.200Z,1.59
2019-03-21T00:12:22.119Z,1.51
2019-03-21T00:15:27.970Z,1.50
2019-03-21T00:18:04.416Z,1.27
2019-03-21T00:20:35.312Z,1.34
2019-03-21T00:23:05.985Z,1.45
2019-03-21T00:25:36.293Z,1.51
2019-03-21T00:28:06.462Z,1.58
2019-03-21T00:30:36.492Z,1.36
2019-03-21T00:33:07.021Z,1.25
2019-03-21T00:35:38.583Z,1.14
2019-03-21T00:38:09.086Z,1.11
2019-03-21T00:40:43.767Z,1.08
2019-03-21T00:43:13.252Z,0.98
2019-03-21T00:45:43.060Z,0.95
2019-03-21T00:48:14.571Z,0.89
2019-03-21T00:50:44.348Z,0.73
2019-03-21T00:53:14.120Z,0.65
2019-03-21T00:55:44.765Z,0.61
2019-03-21T00:58:14.449Z,0.50
2019-03-21T01:00:47.038Z,0.52
2019-03-21T01:03:17.002Z,0.49
2019-03-21T01:05:47.440Z,0.50
2019-03-21T01:08:18.178Z,0.51
2019-03-21T01:10:49.087Z,0.57
2019-03-21T01:13:19.764Z,0.68
2019-03-21T01:15:50.532Z,0.72
2019-03-21T01:18:22.071Z,0.81
2019-03-21T01:20:53.254Z,0.68
2019-03-21T01:23:23.716Z,0.65
2019-03-21T01:25:55.553Z,0.67
2019-03-21T01:28:25.485Z,0.57
2019-03-21T01:30:56.022Z,0.46
2019-03-21T01:33:26.206Z,0.47
2019-03-21T01:35:56.644Z,0.57
2019-03-21T01:38:27.124Z,0.40
2019-03-21T01:40:57.379Z,0.36
2019-03-21T01:43:28.251Z,0.24
2019-03-21T01:45:58.427Z,0.15
2019-03-21T01:48:28.736Z,0.08
2019-03-21T01:50:58.964Z,-0.05
2019-03-21T01:53:29.091Z,-0.05
2019-03-21T01:55:59.227Z,-0.02
2019-03-21T01:58:29.859Z,-0.09
2019-03-21T02:00:59.978Z,-0.16
2019-03-21T02:03:29.936Z,-0.24
2019-03-21T02:06:00.059Z,-0.16
2019-03-21T02:08:30.466Z,-0.15
2019-03-21T02:11:00.414Z,-0.13
2019-03-21T02:13:30.680Z,-0.14
2019-03-21T02:16:00.894Z,-0.11
2019-03-21T02:18:31.216Z,-0.08
2019-03-21T02:21:01.450Z,-0.15
2019-03-21T02:23:31.888Z,-0.11
2019-03-21T02:26:01.982Z,-0.21
2019-03-21T02:28:32.181Z,-0.15
2019-03-21T02:31:02.466Z,0.03
2019-03-21T02:33:33.058Z,0.00
2019-03-21T02:36:03.218Z,0.00
2019-03-21T02:38:33.214Z,-0.04
2019-03-21T02:41:04.823Z,-0.02
2019-03-21T02:43:34.729Z,-0.17
2019-03-21T02:46:05.474Z,-0.21
2019-03-21T02:48:35.295Z,-0.25
2019-03-21T02:51:05.019Z,-0.18
2019-03-21T02:53:35.033Z,-0.25
2019-03-21T02:56:05.519Z,-0.34
2019-03-21T02:58:35.304Z,-0.34
2019-03-21T03:01:05.569Z,-0.27
2019-03-21T03:03:35.758Z,-0.29
2019-03-21T03:06:05.863Z,-0.29
2019-03-21T03:08:35.590Z,-0.30
2019-03-21T03:11:05.987Z,-0.33
2019-03-21T03:13:35.671Z,-0.42
2019-03-21T03:16:05.540Z,-0.36
2019-03-21T03:18:35.250Z,-0.36
2019-03-21T03:21:04.974Z,-0.36
2019-03-21T03:23:34.868Z,-0.36
2019-03-21T03:26:04.917Z,-0.37
2019-03-21T03:28:34.908Z,-0.41
2019-03-21T03:31:04.718Z,-0.34
2019-03-21T03:33:34.714Z,-0.26
2019-03-21T03:36:04.678Z,-0.22
2019-03-21T03:38:34.715Z,-0.17
2019-03-21T03:41:04.849Z,-0.05
2019-03-21T03:43:34.606Z,-0.12
2019-03-21T03:46:04.379Z,-0.10
2019-03-21T03:48:34.248Z,-0.07
2019-03-21T03:51:04.302Z,-0.07
2019-03-21T03:53:34.295Z,-0.09
2019-03-21T03:56:04.437Z,-0.11
2019-03-21T03:58:34.693Z,-0.10
2019-03-21T04:01:04.586Z,-0.18
2019-03-21T04:03:34.384Z,-0.20
2019-03-21T04:06:05.198Z,-0.38
2019-03-21T04:08:35.726Z,-0.26
2019-03-21T04:11:06.041Z,-0.06
2019-03-21T04:13:36.473Z,0.08
2019-03-21T04:16:06.627Z,0.06
2019-03-21T04:18:37.331Z,0.06
2019-03-21T04:21:08.400Z,0.10
2019-03-21T04:23:38.933Z,0.17
2019-03-21T04:26:24.782Z,0.06
2019-03-21T04:28:54.764Z,0.02
2019-03-21T04:31:24.581Z,-0.14
2019-03-21T04:33:56.756Z,-0.05
2019-03-21T04:36:27.139Z,-0.26
2019-03-21T04:38:57.361Z,-0.32
2019-03-21T04:41:27.445Z,-0.25
2019-03-21T04:43:57.339Z,-0.36
2019-03-21T04:46:27.537Z,-0.57
2019-03-21T04:48:57.381Z,-0.82
2019-03-21T04:51:27.081Z,-0.91
2019-03-21T04:53:57.450Z,-0.71
2019-03-21T04:56:27.566Z,-0.52
2019-03-21T04:58:57.487Z,-0.28
2019-03-21T05:01:27.832Z,-0.25
2019-03-21T05:03:57.959Z,-0.41
2019-03-21T05:06:28.203Z,-0.53
2019-03-21T05:08:58.403Z,-0.70
2019-03-21T05:11:28.497Z,-0.90
2019-03-21T05:13:58.982Z,-0.94
2019-03-21T05:16:29.268Z,-0.99
2019-03-21T05:18:59.557Z,-1.16
2019-03-21T05:21:29.483Z,-1.13
2019-03-21T05:23:59.527Z,-1.17
2019-03-21T05:26:29.801Z,-1.15
2019-03-21T05:29:00.025Z,-1.22
2019-03-21T05:31:32.253Z,-1.19
2019-03-21T05:34:02.249Z,-1.04
2019-03-21T05:36:33.222Z,-1.01
2019-03-21T05:39:04.569Z,-1.05
2019-03-21T05:41:34.828Z,-1.01
2019-03-21T05:44:31.842Z,-0.93
2019-03-21T05:47:02.013Z,-0.85
2019-03-21T05:49:32.154Z,-0.73
2019-03-21T05:52:02.584Z,-0.78
2019-03-21T05:54:32.544Z,-0.71
2019-03-21T05:57:02.837Z,-0.67
2019-03-21T05:59:33.077Z,-0.53
2019-03-21T06:02:03.057Z,-0.49
2019-03-21T06:04:33.187Z,-0.47
2019-03-21T06:07:23.079Z,-0.39
2019-03-21T06:09:53.284Z,-0.24
2019-03-21T06:12:23.485Z,-0.25
2019-03-21T06:14:57.480Z,-0.18
2019-03-21T06:17:28.763Z,-0.11
2019-03-21T06:20:41.050Z,-0.10
2019-03-21T06:23:43.667Z,-0.18
2019-03-21T06:26:46.915Z,-0.20
2019-03-21T06:29:16.908Z,-0.28
2019-03-21T06:31:46.925Z,-0.27
2019-03-21T06:34:16.939Z,-0.15
2019-03-21T06:36:47.355Z,-0.08
2019-03-21T06:39:17.331Z,0.08
2019-03-21T06:41:48.411Z,0.19
2019-03-21T06:44:18.482Z,0.30
2019-03-21T06:46:49.866Z,0.50
2019-03-21T06:49:20.197Z,0.69
2019-03-21T06:51:50.712Z,0.93
2019-03-21T06:54:21.235Z,1.16
2019-03-21T06:56:51.988Z,1.33
2019-03-21T06:59:22.275Z,1.23
2019-03-21T07:01:53.393Z,1.23
2019-03-21T07:04:24.464Z,1.38
2019-03-21T07:06:55.548Z,1.60
2019-03-21T07:09:26.254Z,1.76
2019-03-21T07:11:57.755Z,1.93
2019-03-21T07:14:28.098Z,2.10
2019-03-21T07:17:00.581Z,2.28
2019-03-21T07:19:30.451Z,2.62
2019-03-21T07:22:00.495Z,2.67
2019-03-21T07:24:30.564Z,2.64
2019-03-21T07:27:00.946Z,2.71
2019-03-21T07:29:31.302Z,2.73
2019-03-21T07:32:01.326Z,2.91
2019-03-21T07:34:32.167Z,3.22
2019-03-21T07:37:02.485Z,3.47
2019-03-21T07:39:32.451Z,3.69
2019-03-21T07:42:02.460Z,3.97
2019-03-21T07:44:32.274Z,4.18
2019-03-21T07:47:12.297Z,4.36
2019-03-21T07:49:33.520Z,4.47
2019-03-21T07:52:03.575Z,4.64
2019-03-21T07:54:33.310Z,4.85
2019-03-21T07:57:03.357Z,4.79
2019-03-21T07:59:33.376Z,4.74
2019-03-21T08:02:03.681Z,4.87
2019-03-21T08:04:33.725Z,4.93
2019-03-21T08:07:03.856Z,4.93
2019-03-21T08:09:34.114Z,4.99
2019-03-21T08:12:04.373Z,4.99
2019-03-21T08:14:34.394Z,5.12
2019-03-21T08:17:04.670Z,5.37
2019-03-21T08:19:34.721Z,5.45
2019-03-21T08:22:04.926Z,5.46
2019-03-21T08:24:35.145Z,5.33
2019-03-21T08:27:05.434Z,5.38
2019-03-21T08:29:35.594Z,5.45
2019-03-21T08:32:05.574Z,5.42
2019-03-21T08:34:35.762Z,5.49
2019-03-21T08:37:05.841Z,5.80
2019-03-21T08:39:35.739Z,6.14
2019-03-21T08:42:05.617Z,6.19
2019-03-21T08:44:35.453Z,6.19
2019-03-21T08:47:05.195Z,6.20
2019-03-21T08:49:35.185Z,6.37
2019-03-21T08:52:04.903Z,6.57
2019-03-21T08:54:35.079Z,6.67
2019-03-21T08:57:04.794Z,6.99
2019-03-21T08:59:34.934Z,7.18
2019-03-21T09:02:04.871Z,7.13
2019-03-21T09:04:34.559Z,7.23
2019-03-21T09:07:04.431Z,7.31
2019-03-21T09:09:34.250Z,7.60
2019-03-21T09:12:04.276Z,7.85
2019-03-21T09:14:34.002Z,7.84
2019-03-21T09:17:03.738Z,8.07
2019-03-21T09:19:33.517Z,8.19
2019-03-21T09:22:03.642Z,8.38
2019-03-21T09:24:33.476Z,8.35
2019-03-21T09:27:03.338Z,8.46
2019-03-21T09:29:33.024Z,8.50
2019-03-21T09:32:02.918Z,8.59
2019-03-21T09:34:32.620Z,8.79
2019-03-21T09:37:04.033Z,8.85
2019-03-21T09:39:33.980Z,8.78
2019-03-21T09:42:04.243Z,8.85
2019-03-21T09:44:34.471Z,8.94
2019-03-21T09:47:04.272Z,9.05
2019-03-21T09:49:34.270Z,9.28
2019-03-21T09:52:04.305Z,9.32
2019-03-21T09:54:34.019Z,9.58
2019-03-21T09:57:03.722Z,9.58
2019-03-21T09:59:33.602Z,9.87
2019-03-21T10:02:03.485Z,9.47
2019-03-21T10:04:33.191Z,9.80
2019-03-21T10:07:02.876Z,10.23
2019-03-21T10:09:32.729Z,10.29
2019-03-21T10:12:02.420Z,10.25
2019-03-21T10:14:32.365Z,10.35
2019-03-21T10:17:02.158Z,10.30
2019-03-21T10:19:32.005Z,10.31
2019-03-21T10:22:01.811Z,10.24
2019-03-21T10:24:31.761Z,10.30
2019-03-21T10:27:02.100Z,10.40
2019-03-21T10:29:31.828Z,10.56
2019-03-21T10:32:01.501Z,10.75
2019-03-21T10:34:31.207Z,10.76
2019-03-21T10:37:01.007Z,11.01
2019-03-21T10:39:30.730Z,11.15
2019-03-21T10:42:00.732Z,11.11
2019-03-21T10:44:30.452Z,11.50
2019-03-21T10:47:00.135Z,11.56
2019-03-21T10:49:29.813Z,11.41
2019-03-21T10:51:59.546Z,11.70
2019-03-21T10:54:29.429Z,11.95
2019-03-21T10:56:59.173Z,11.78
2019-03-21T10:59:29.087Z,11.89
2019-03-21T11:02:07.346Z,11.84
2019-03-21T11:04:30.405Z,11.96
2019-03-21T11:07:01.538Z,11.98
2019-03-21T11:09:31.719Z,12.23
2019-03-21T11:12:01.572Z,12.36
2019-03-21T11:14:31.361Z,12.20
2019-03-21T11:17:01.125Z,12.05
2019-03-21T11:19:30.796Z,12.31
2019-03-21T11:22:06.271Z,12.49
2019-03-21T11:24:32.563Z,12.52
2019-03-21T11:27:02.269Z,12.55
2019-03-21T11:29:31.976Z,12.83
2019-03-21T11:32:01.845Z,12.98
2019-03-21T11:34:31.544Z,12.77
2019-03-21T11:37:01.281Z,12.81
2019-03-21T11:39:30.976Z,12.71
2019-03-21T11:42:00.709Z,12.60
2019-03-21T11:44:36.135Z,12.69
2019-03-21T11:47:09.075Z,12.79
2019-03-21T11:49:38.779Z,13.01
2019-03-21T11:52:17.825Z,13.00
2019-03-21T11:54:40.108Z,13.27
2019-03-21T11:57:09.951Z,13.28
2019-03-21T11:59:51.414Z,13.18
2019-03-21T12:02:27.055Z,13.31
2019-03-21T12:04:52.710Z,13.49
2019-03-21T12:07:22.454Z,13.53
2019-03-21T12:09:52.156Z,13.48
2019-03-21T12:12:21.851Z,13.59
2019-03-21T12:14:51.735Z,13.66
2019-03-21T12:17:21.413Z,13.48
2019-03-21T12:19:51.179Z,13.76
2019-03-21T12:22:29.503Z,13.76
2019-03-21T12:24:52.360Z,13.70
2019-03-21T12:27:22.066Z,14.01
2019-03-21T12:29:52.025Z,14.09
2019-03-21T12:32:21.710Z,14.06
2019-03-21T12:34:51.678Z,14.18
2019-03-21T12:37:21.637Z,14.21
2019-03-21T12:39:51.385Z,14.19
2019-03-21T12:42:21.375Z,14.19
2019-03-21T12:44:51.116Z,14.22
2019-03-21T12:47:30.810Z,14.29
2019-03-21T12:49:52.552Z,14.45
2019-03-21T12:52:22.282Z,14.52
2019-03-21T12:54:52.039Z,14.41
2019-03-21T12:57:21.721Z,14.44
2019-03-21T12:59:51.672Z,14.38
2019-03-21T13:02:32.095Z,14.46
2019-03-21T13:04:53.395Z,14.55
2019-03-21T13:07:23.334Z,14.58
2019-03-21T13:09:53.068Z,14.64
2019-03-21T13:12:23.061Z,14.50
2019-03-21T13:14:52.999Z,14.50
2019-03-21T13:17:22.722Z,14.62
2019-03-21T13:19:52.739Z,14.74
2019-03-21T13:22:22.475Z,14.84
2019-03-21T13:24:52.229Z,14.71
2019-03-21T13:27:21.911Z,14.84
2019-03-21T13:29:51.694Z,14.74
2019-03-21T13:32:21.420Z,14.81
2019-03-21T13:34:51.161Z,15.27
2019-03-21T13:37:21.049Z,14.92
2019-03-21T13:39:51.039Z,14.84
2019-03-21T13:42:20.756Z,15.05
2019-03-21T13:44:50.636Z,15.37
2019-03-21T13:47:20.562Z,15.52
2019-03-21T13:49:50.466Z,15.24
2019-03-21T13:52:20.387Z,15.06
2019-03-21T13:54:50.114Z,15.11
2019-03-21T13:57:20.328Z,15.19
2019-03-21T13:59:50.215Z,15.18
2019-03-21T14:02:19.956Z,15.11
2019-03-21T14:04:49.640Z,15.14
2019-03-21T14:07:19.370Z,15.34
2019-03-21T14:09:49.133Z,15.40
2019-03-21T14:12:19.026Z,15.37
2019-03-21T14:14:48.716Z,15.44
2019-03-21T14:17:22.223Z,15.33
2019-03-21T14:19:49.957Z,15.54
2019-03-21T14:22:21.348Z,15.30
2019-03-21T14:24:51.257Z,15.29
2019-03-21T14:27:21.120Z,15.26
2019-03-21T14:30:00.862Z,15.42
2019-03-21T14:32:22.614Z,15.56
2019-03-21T14:34:52.407Z,15.44
2019-03-21T14:37:22.198Z,15.38
2019-03-21T14:39:51.887Z,15.43
2019-03-21T14:42:21.946Z,15.41
2019-03-21T14:44:51.837Z,15.52
2019-03-21T14:47:21.570Z,15.43
2019-03-21T14:49:53.157Z,15.50
2019-03-21T14:52:23.250Z,15.18
2019-03-21T14:54:53.284Z,15.35
2019-03-21T14:57:23.392Z,15.40
2019-03-21T14:59:53.609Z,15.47
2019-03-21T15:02:23.588Z,15.63
2019-03-21T15:04:54.044Z,15.44
2019-03-21T15:07:26.348Z,15.54
2019-03-21T15:09:58.140Z,15.41
2019-03-21T15:12:32.628Z,15.45
2019-03-21T15:15:03.516Z,15.47
2019-03-21T15:17:34.688Z,15.59
2019-03-21T15:20:06.841Z,15.75
2019-03-21T15:22:37.810Z,15.61
2019-03-21T15:25:10.452Z,15.56
2019-03-21T15:27:41.622Z,15.53
2019-03-21T15:30:18.492Z,15.51
2019-03-21T15:32:50.531Z,15.53
2019-03-21T15:35:22.455Z,15.47
2019-03-21T15:37:54.220Z,15.32
2019-03-21T15:40:25.937Z,15.42
2019-03-21T15:42:57.356Z,15.50
2019-03-21T15:45:29.478Z,15.45
2019-03-21T15:48:00.282Z,15.48
2019-03-21T15:50:37.582Z,15.52
2019-03-21T15:53:09.184Z,15.55
2019-03-21T15:55:41.017Z,15.56
2019-03-21T15:58:12.303Z,15.50
2019-03-21T16:00:45.251Z,15.57
2019-03-21T16:03:17.812Z,15.62
2019-03-21T16:05:49.503Z,15.40
2019-03-21T16:08:22.768Z,15.39
2019-03-21T16:10:54.913Z,15.39
2019-03-21T16:13:26.140Z,15.34
2019-03-21T16:15:57.605Z,15.33
2019-03-21T16:18:29.411Z,15.31
2019-03-21T16:21:00.875Z,15.24
2019-03-21T16:23:32.221Z,15.23
2019-03-21T16:26:03.413Z,15.18
2019-03-21T16:28:34.520Z,15.08
2019-03-21T16:31:05.808Z,15.04
2019-03-21T16:33:40.342Z,15.04
2019-03-21T16:36:13.014Z,15.00
2019-03-21T16:38:44.708Z,14.95
2019-03-21T16:41:16.589Z,14.77
2019-03-21T16:43:49.130Z,14.65
2019-03-21T16:46:20.987Z,14.62
2019-03-21T16:48:52.897Z,14.55
2019-03-21T16:51:24.456Z,14.48
2019-03-21T16:53:56.353Z,14.45
2019-03-21T16:56:27.787Z,14.40
2019-03-21T16:58:59.316Z,14.30
2019-03-21T17:01:30.619Z,14.26
2019-03-21T17:04:01.542Z,14.13
2019-03-21T17:06:32.905Z,14.01
2019-03-21T17:09:04.157Z,13.91
2019-03-21T17:11:35.365Z,13.74
2019-03-21T17:14:06.470Z,13.63
2019-03-21T17:16:38.126Z,13.50
2019-03-21T17:19:10.604Z,13.36
2019-03-21T17:21:41.450Z,13.23
2019-03-21T17:24:13.152Z,13.04
2019-03-21T17:26:45.106Z,12.97
2019-03-21T17:29:17.407Z,12.82
2019-03-21T17:31:50.014Z,12.71
2019-03-21T17:34:21.587Z,12.56
2019-03-21T17:36:53.453Z,12.43
2019-03-21T17:39:26.461Z,12.41
2019-03-21T17:41:57.839Z,12.33
2019-03-21T17:44:29.204Z,12.25
2019-03-21T17:47:00.286Z,12.11
2019-03-21T17:49:31.594Z,12.01
2019-03-21T17:52:02.623Z,11.98
2019-03-21T17:54:41.535Z,11.81
2019-03-21T17:57:06.422Z,11.79
2019-03-21T17:59:38.007Z,11.65
2019-03-21T18:02:09.277Z,11.45
2019-03-21T18:04:40.995Z,11.34
2019-03-21T18:07:12.672Z,11.25
2019-03-21T18:09:44.245Z,11.27
2019-03-21T18:12:17.437Z,11.25
2019-03-21T18:14:49.235Z,11.17
2019-03-21T18:17:20.601Z,11.30
2019-03-21T18:19:52.192Z,11.44
2019-03-21T18:22:23.939Z,11.50
2019-03-21T18:24:56.262Z,11.53
2019-03-21T18:27:26.945Z,11.60
2019-03-21T18:29:58.513Z,11.55
2019-03-21T18:32:29.353Z,11.54
2019-03-21T18:35:00.406Z,11.47
2019-03-21T18:37:32.019Z,11.49
2019-03-21T18:40:02.843Z,11.33
2019-03-21T18:42:33.865Z,11.29
2019-03-21T18:45:05.204Z,11.29
2019-03-21T18:47:36.277Z,11.30
2019-03-21T18:50:09.349Z,11.20
2019-03-21T18:52:40.303Z,11.19
2019-03-21T18:55:15.171Z,11.09
2019-03-21T18:57:47.497Z,11.08
2019-03-21T19:00:20.225Z,10.97
2019-03-21T19:02:52.296Z,10.88
2019-03-21T19:05:23.642Z,10.84
2019-03-21T19:07:55.952Z,10.76
2019-03-21T19:10:27.307Z,10.57
2019-03-21T19:12:57.905Z,10.42
2019-03-21T19:15:29.132Z,10.35
2019-03-21T19:17:59.885Z,10.24
2019-03-21T19:20:30.757Z,10.23
2019-03-21T19:23:02.206Z,10.23
2019-03-21T19:25:33.175Z,10.14
2019-03-21T19:28:04.402Z,10.08
2019-03-21T19:30:35.322Z,10.10
2019-03-21T19:33:06.514Z,10.11
2019-03-21T19:35:37.954Z,10.18
2019-03-21T19:38:09.223Z,10.19
2019-03-21T19:40:39.878Z,10.16
2019-03-21T19:43:10.945Z,10.02
2019-03-21T19:45:42.048Z,9.91
2019-03-21T19:48:13.457Z,9.76
2019-03-21T19:50:46.402Z,9.63
2019-03-21T19:53:17.971Z,9.63
2019-03-21T19:55:50.956Z,9.71
2019-03-21T19:58:22.849Z,9.72
2019-03-21T20:00:54.382Z,9.79
2019-03-21T20:03:26.221Z,9.77
2019-03-21T20:06:00.469Z,9.81
2019-03-21T20:08:30.406Z,9.67
2019-03-21T20:11:01.782Z,9.65
2019-03-21T20:13:33.013Z,9.44
2019-03-21T20:16:04.097Z,9.05
2019-03-21T20:18:35.449Z,8.75
2019-03-21T20:21:06.701Z,8.38
2019-03-21T20:23:37.975Z,8.22
2019-03-21T20:26:09.269Z,8.04
2019-03-21T20:28:40.839Z,8.04
2019-03-21T20:31:12.074Z,8.10
2019-03-21T20:33:44.250Z,8.08
2019-03-21T20:36:16.889Z,8.16
2019-03-21T20:38:50.000Z,8.16
2019-03-21T20:41:22.740Z,8.01
2019-03-21T20:43:53.760Z,7.64
2019-03-21T20:46:24.738Z,7.48
2019-03-21T20:48:53.364Z,7.35
2019-03-21T20:51:24.179Z,7.39
2019-03-21T20:53:55.578Z,7.35
2019-03-21T20:56:26.679Z,7.34
2019-03-21T20:58:57.637Z,7.27
2019-03-21T21:01:28.784Z,7.33
2019-03-21T21:03:59.828Z,7.35
2019-03-21T21:06:31.802Z,7.51
2019-03-21T21:09:08.210Z,7.55
2019-03-21T21:11:39.566Z,7.59
2019-03-21T21:14:10.519Z,7.62
2019-03-21T21:16:42.127Z,7.53
2019-03-21T21:19:12.966Z,7.45
2019-03-21T21:21:44.032Z,7.37
2019-03-21T21:24:15.292Z,7.21
2019-03-21T21:26:47.270Z,7.04
2019-03-21T21:29:18.602Z,6.88
2019-03-21T21:31:50.979Z,6.60
2019-03-21T21:34:22.209Z,6.54
2019-03-21T21:36:53.641Z,6.47
2019-03-21T21:39:25.814Z,6.31
2019-03-21T21:41:57.106Z,6.28
2019-03-21T21:44:28.013Z,6.18
2019-03-21T21:46:58.899Z,6.08
2019-03-21T21:49:30.076Z,5.89
2019-03-21T21:52:01.218Z,5.77
2019-03-21T21:54:32.153Z,5.80
2019-03-21T21:57:02.896Z,5.85
2019-03-21T22:02:58.417Z,5.82
2019-03-21T22:05:28.163Z,5.68
2019-03-21T22:07:58.050Z,5.56
2019-03-21T22:10:29.487Z,5.45
2019-03-21T22:12:59.540Z,5.45
2019-03-21T22:15:29.597Z,5.52
2019-03-21T22:17:59.702Z,5.70
2019-03-21T22:20:29.424Z,5.54
2019-03-21T22:22:59.430Z,5.40
2019-03-21T22:25:29.386Z,5.34
2019-03-21T22:27:59.517Z,5.35
2019-03-21T22:30:29.583Z,5.33
2019-03-21T22:32:59.281Z,5.34
2019-03-21T22:35:29.044Z,5.28
2019-03-21T22:37:59.302Z,5.25
2019-03-21T22:40:29.034Z,5.42
2019-03-21T22:42:58.918Z,5.69
2019-03-21T22:45:28.749Z,5.54
2019-03-21T22:47:58.489Z,5.53
2019-03-21T22:50:28.264Z,5.53
2019-03-21T22:52:58.068Z,5.57
2019-03-21T22:55:27.815Z,5.52
2019-03-21T22:57:57.575Z,5.48
2019-03-21T23:00:34.827Z,5.39
2019-03-21T23:03:04.546Z,5.34
2019-03-21T23:05:34.371Z,5.24
2019-03-21T23:08:04.461Z,5.09
2019-03-21T23:10:35.842Z,4.88
2019-03-21T23:13:05.878Z,4.92
2019-03-21T23:15:35.565Z,4.71
2019-03-21T23:18:05.435Z,4.55
2019-03-21T23:20:35.225Z,4.43
2019-03-21T23:23:05.099Z,4.42
2019-03-21T23:25:34.891Z,4.51
2019-03-21T23:28:04.593Z,4.46
2019-03-21T23:30:34.325Z,4.38
2019-03-21T23:33:04.087Z,4.49
2019-03-21T23:35:33.818Z,4.39
2019-03-21T23:38:03.507Z,4.43
2019-03-21T23:40:33.254Z,4.15
2019-03-21T23:43:02.958Z,4.01
2019-03-21T23:45:32.949Z,3.89
2019-03-21T23:48:02.787Z,3.84
2019-03-21T23:50:32.900Z,3.76
2019-03-21T23:53:02.591Z,3.79
2019-03-21T23:55:32.290Z,3.80
2019-03-21T23:58:02.117Z,3.83
